sensor_id;sensor_type;location;lat;lon;timestamp;pressure;altitude;pressure_sealevel;temperature;humidity
72116;BME280;59991;52.140;5.428;2022-07-10T00:00:05;102816.00;;;15.04;66.72
72116;BME280;59991;52.140;5.428;2022-07-10T00:02:07;102811.41;;;15.08;66.74
72116;BME280;59991;52.140;5.428;2022-07-10T00:04:08;102801.63;;;15.11;66.75
72116;BME280;59991;52.140;5.428;2022-07-10T00:06:10;102802.34;;;15.08;66.60
72116;BME280;59991;52.140;5.428;2022-07-10T00:08:12;102814.41;;;15.03;66.80
72116;BME280;59991;52.140;5.428;2022-07-10T00:10:13;102814.38;;;15.00;67.00
72116;BME280;59991;52.140;5.428;2022-07-10T00:12:15;102812.81;;;15.02;67.03
72116;BME280;59991;52.140;5.428;2022-07-10T00:14:16;102817.53;;;15.02;66.82
72116;BME280;59991;52.140;5.428;2022-07-10T00:16:18;102814.78;;;15.02;66.96
72116;BME280;59991;52.140;5.428;2022-07-10T00:18:20;102809.28;;;15.02;66.91
72116;BME280;59991;52.140;5.428;2022-07-10T00:20:21;102801.47;;;15.04;68.08
72116;BME280;59991;52.140;5.428;2022-07-10T00:22:23;102810.47;;;15.01;67.31
72116;BME280;59991;52.140;5.428;2022-07-10T00:24:24;102799.03;;;14.99;67.71
72116;BME280;59991;52.140;5.428;2022-07-10T00:26:25;102794.69;;;14.98;67.58
72116;BME280;59991;52.140;5.428;2022-07-10T00:28:44;102800.91;;;14.95;67.50
72116;BME280;59991;52.140;5.428;2022-07-10T00:30:46;102797.00;;;14.96;68.24
72116;BME280;59991;52.140;5.428;2022-07-10T00:32:47;102795.06;;;14.96;68.36
72116;BME280;59991;52.140;5.428;2022-07-10T00:34:49;102806.75;;;14.93;67.92
72116;BME280;59991;52.140;5.428;2022-07-10T00:36:50;102796.13;;;14.92;68.47
72116;BME280;59991;52.140;5.428;2022-07-10T00:38:52;102802.41;;;14.92;68.18
72116;BME280;59991;52.140;5.428;2022-07-10T00:40:53;102797.63;;;14.89;68.09
72116;BME280;59991;52.140;5.428;2022-07-10T00:42:55;102797.63;;;14.89;68.23
72116;BME280;59991;52.140;5.428;2022-07-10T00:47:16;102793.66;;;14.86;68.48
72116;BME280;59991;52.140;5.428;2022-07-10T00:49:20;102800.66;;;14.84;69.18
72116;BME280;59991;52.140;5.428;2022-07-10T00:53:45;102802.19;;;14.81;69.10
72116;BME280;59991;52.140;5.428;2022-07-10T00:55:47;102795.03;;;14.77;68.96
72116;BME280;59991;52.140;5.428;2022-07-10T00:57:49;102793.00;;;14.74;68.77
72116;BME280;59991;52.140;5.428;2022-07-10T00:59:51;102799.63;;;14.73;69.31
72116;BME280;59991;52.140;5.428;2022-07-10T01:01:53;102797.25;;;14.71;69.21
72116;BME280;59991;52.140;5.428;2022-07-10T01:03:55;102791.75;;;14.71;69.38
72116;BME280;59991;52.140;5.428;2022-07-10T01:05:57;102788.91;;;14.68;69.21
72116;BME280;59991;52.140;5.428;2022-07-10T01:07:59;102779.44;;;14.65;69.13
72116;BME280;59991;52.140;5.428;2022-07-10T01:10:00;102779.78;;;14.64;69.17
72116;BME280;59991;52.140;5.428;2022-07-10T01:12:03;102772.72;;;14.63;69.40
72116;BME280;59991;52.140;5.428;2022-07-10T01:14:06;102779.78;;;14.64;69.48
72116;BME280;59991;52.140;5.428;2022-07-10T01:16:07;102779.38;;;14.62;69.12
72116;BME280;59991;52.140;5.428;2022-07-10T01:18:09;102780.91;;;14.59;68.99
72116;BME280;59991;52.140;5.428;2022-07-10T01:20:11;102779.28;;;14.58;68.88
72116;BME280;59991;52.140;5.428;2022-07-10T01:22:12;102776.47;;;14.55;69.24
72116;BME280;59991;52.140;5.428;2022-07-10T01:24:14;102773.38;;;14.56;69.19
72116;BME280;59991;52.140;5.428;2022-07-10T01:26:15;102763.88;;;14.54;69.27
72116;BME280;59991;52.140;5.428;2022-07-10T01:28:17;102770.63;;;14.56;69.16
72116;BME280;59991;52.140;5.428;2022-07-10T01:30:36;102765.47;;;14.55;69.21
72116;BME280;59991;52.140;5.428;2022-07-10T01:32:39;102763.09;;;14.53;69.48
72116;BME280;59991;52.140;5.428;2022-07-10T01:34:41;102762.22;;;14.49;69.25
72116;BME280;59991;52.140;5.428;2022-07-10T01:36:42;102769.22;;;14.46;69.72
72116;BME280;59991;52.140;5.428;2022-07-10T01:38:44;102767.69;;;14.49;68.79
72116;BME280;59991;52.140;5.428;2022-07-10T01:40:45;102767.69;;;14.49;69.21
72116;BME280;59991;52.140;5.428;2022-07-10T01:42:47;102758.66;;;14.48;69.28
72116;BME280;59991;52.140;5.428;2022-07-10T01:44:48;102762.13;;;14.45;69.70
72116;BME280;59991;52.140;5.428;2022-07-10T01:46:50;102761.31;;;14.45;69.56
72116;BME280;59991;52.140;5.428;2022-07-10T01:48:52;102761.31;;;14.45;69.82
72116;BME280;59991;52.140;5.428;2022-07-10T01:51:13;102763.00;;;14.49;70.01
72116;BME280;59991;52.140;5.428;2022-07-10T01:53:14;102765.75;;;14.49;69.52
72116;BME280;59991;52.140;5.428;2022-07-10T01:55:16;102758.31;;;14.50;70.01
72116;BME280;59991;52.140;5.428;2022-07-10T01:57:17;102767.78;;;14.52;70.14
72116;BME280;59991;52.140;5.428;2022-07-10T01:59:19;102761.16;;;14.54;69.72
72116;BME280;59991;52.140;5.428;2022-07-10T02:01:20;102756.44;;;14.54;69.91
72116;BME280;59991;52.140;5.428;2022-07-10T02:03:22;102745.13;;;14.56;69.94
72116;BME280;59991;52.140;5.428;2022-07-10T02:05:42;102748.31;;;14.58;69.85
72116;BME280;59991;52.140;5.428;2022-07-10T02:07:43;102749.91;;;14.59;70.17
72116;BME280;59991;52.140;5.428;2022-07-10T02:09:45;102754.69;;;14.62;70.25
72116;BME280;59991;52.140;5.428;2022-07-10T02:11:46;102753.50;;;14.63;70.20
72116;BME280;59991;52.140;5.428;2022-07-10T02:13:48;102742.16;;;14.64;70.30
72116;BME280;59991;52.140;5.428;2022-07-10T02:15:49;102732.41;;;14.67;70.83
72116;BME280;59991;52.140;5.428;2022-07-10T02:17:51;102734.78;;;14.68;70.33
72116;BME280;59991;52.140;5.428;2022-07-10T02:20:11;102736.81;;;14.71;70.23
72116;BME280;59991;52.140;5.428;2022-07-10T02:22:13;102729.75;;;14.70;70.33
72116;BME280;59991;52.140;5.428;2022-07-10T02:24:14;102727.78;;;14.71;70.44
72116;BME280;59991;52.140;5.428;2022-07-10T02:26:16;102725.50;;;14.73;70.66
72116;BME280;59991;52.140;5.428;2022-07-10T02:28:17;102724.34;;;14.74;70.16
72116;BME280;59991;52.140;5.428;2022-07-10T02:30:19;102736.13;;;14.74;70.05
72116;BME280;59991;52.140;5.428;2022-07-10T02:32:20;102732.28;;;14.79;69.58
72116;BME280;59991;52.140;5.428;2022-07-10T02:34:23;102726.81;;;14.79;70.11
72116;BME280;59991;52.140;5.428;2022-07-10T02:36:24;102731.50;;;14.78;70.35
72116;BME280;59991;52.140;5.428;2022-07-10T02:38:25;102736.63;;;14.80;70.29
72116;BME280;59991;52.140;5.428;2022-07-10T02:40:28;102731.16;;;14.80;70.09
72116;BME280;59991;52.140;5.428;2022-07-10T02:42:29;102726.00;;;14.78;69.87
72116;BME280;59991;52.140;5.428;2022-07-10T02:44:31;102722.91;;;14.80;69.96
72116;BME280;59991;52.140;5.428;2022-07-10T02:46:33;102730.72;;;14.78;70.09
72116;BME280;59991;52.140;5.428;2022-07-10T02:48:34;102721.16;;;14.72;70.43
72116;BME280;59991;52.140;5.428;2022-07-10T02:50:38;102715.38;;;14.77;70.29
72116;BME280;59991;52.140;5.428;2022-07-10T02:52:39;102718.84;;;14.74;69.71
72116;BME280;59991;52.140;5.428;2022-07-10T02:54:40;102717.59;;;14.71;69.84
72116;BME280;59991;52.140;5.428;2022-07-10T02:56:42;102722.31;;;14.71;70.00
72116;BME280;59991;52.140;5.428;2022-07-10T02:58:43;102728.94;;;14.70;70.42
72116;BME280;59991;52.140;5.428;2022-07-10T03:00:45;102719.03;;;14.65;69.85
72116;BME280;59991;52.140;5.428;2022-07-10T03:02:46;102723.03;;;14.68;70.23
72116;BME280;59991;52.140;5.428;2022-07-10T03:04:48;102725.31;;;14.66;70.29
72116;BME280;59991;52.140;5.428;2022-07-10T03:06:49;102726.13;;;14.66;70.63
72116;BME280;59991;52.140;5.428;2022-07-10T03:08:51;102713.91;;;14.64;70.65
72116;BME280;59991;52.140;5.428;2022-07-10T03:10:52;102720.97;;;14.65;70.59
72116;BME280;59991;52.140;5.428;2022-07-10T03:12:54;102730.00;;;14.65;70.29
72116;BME280;59991;52.140;5.428;2022-07-10T03:14:55;102728.06;;;14.66;70.29
72116;BME280;59991;52.140;5.428;2022-07-10T03:16:57;102739.06;;;14.66;70.28
72116;BME280;59991;52.140;5.428;2022-07-10T03:18:58;102736.31;;;14.66;70.49
72116;BME280;59991;52.140;5.428;2022-07-10T03:21:00;102732.75;;;14.65;70.55
72116;BME280;59991;52.140;5.428;2022-07-10T03:23:01;102717.09;;;14.66;70.17
72116;BME280;59991;52.140;5.428;2022-07-10T03:25:03;102723.81;;;14.68;70.25
72116;BME280;59991;52.140;5.428;2022-07-10T03:27:05;102730.53;;;14.71;70.29
72116;BME280;59991;52.140;5.428;2022-07-10T03:29:06;102726.56;;;14.68;70.17
72116;BME280;59991;52.140;5.428;2022-07-10T03:31:08;102721.88;;;14.69;69.70
72116;BME280;59991;52.140;5.428;2022-07-10T03:33:09;102719.47;;;14.67;69.54
72116;BME280;59991;52.140;5.428;2022-07-10T03:35:11;102724.16;;;14.67;70.07
72116;BME280;59991;52.140;5.428;2022-07-10T03:37:12;102721.94;;;14.72;69.84
72116;BME280;59991;52.140;5.428;2022-07-10T03:39:14;102717.25;;;14.73;70.06
72116;BME280;59991;52.140;5.428;2022-07-10T03:41:33;102724.34;;;14.74;69.68
72116;BME280;59991;52.140;5.428;2022-07-10T03:43:34;102724.78;;;14.76;70.23
72116;BME280;59991;52.140;5.428;2022-07-10T03:45:36;102725.56;;;14.76;70.11
72116;BME280;59991;52.140;5.428;2022-07-10T03:47:37;102719.28;;;14.76;70.35
72116;BME280;59991;52.140;5.428;2022-07-10T03:49:39;102726.72;;;14.75;70.15
72116;BME280;59991;52.140;5.428;2022-07-10T03:51:41;102724.41;;;14.77;69.98
72116;BME280;59991;52.140;5.428;2022-07-10T03:53:43;102724.41;;;14.77;69.72
72116;BME280;59991;52.140;5.428;2022-07-10T03:55:45;102720.16;;;14.80;70.76
72116;BME280;59991;52.140;5.428;2022-07-10T03:57:46;102708.72;;;14.78;70.38
72116;BME280;59991;52.140;5.428;2022-07-10T03:59:58;102713.50;;;14.81;70.39
72116;BME280;59991;52.140;5.428;2022-07-10T04:01:59;102703.31;;;14.81;70.13
72116;BME280;59991;52.140;5.428;2022-07-10T04:04:01;102702.53;;;14.81;70.19
72116;BME280;59991;52.140;5.428;2022-07-10T04:06:02;102703.72;;;14.83;70.40
72116;BME280;59991;52.140;5.428;2022-07-10T04:08:04;102702.53;;;14.81;70.16
72116;BME280;59991;52.140;5.428;2022-07-10T04:10:06;102716.75;;;14.86;70.55
72116;BME280;59991;52.140;5.428;2022-07-10T04:12:08;102720.28;;;14.87;70.09
72116;BME280;59991;52.140;5.428;2022-07-10T04:14:28;102707.28;;;14.84;70.32
72116;BME280;59991;52.140;5.428;2022-07-10T04:16:30;102704.97;;;14.86;70.83
72116;BME280;59991;52.140;5.428;2022-07-10T04:18:31;102712.41;;;14.85;70.99
72116;BME280;59991;52.140;5.428;2022-07-10T04:20:32;102712.84;;;14.88;70.64
72116;BME280;59991;52.140;5.428;2022-07-10T04:22:34;102712.84;;;14.88;70.59
72116;BME280;59991;52.140;5.428;2022-07-10T04:24:36;102707.78;;;14.90;70.52
72116;BME280;59991;52.140;5.428;2022-07-10T04:26:37;102709.03;;;14.92;70.43
72116;BME280;59991;52.140;5.428;2022-07-10T04:28:39;102701.13;;;14.91;70.45
72116;BME280;59991;52.140;5.428;2022-07-10T04:30:41;102709.81;;;14.93;70.98
72116;BME280;59991;52.140;5.428;2022-07-10T04:32:42;102703.09;;;14.90;70.41
72116;BME280;59991;52.140;5.428;2022-07-10T04:34:44;102707.44;;;14.91;70.47
72116;BME280;59991;52.140;5.428;2022-07-10T04:36:45;102708.59;;;14.90;70.72
72116;BME280;59991;52.140;5.428;2022-07-10T04:38:47;102702.66;;;14.88;70.62
72116;BME280;59991;52.140;5.428;2022-07-10T04:40:48;102702.22;;;14.86;70.81
72116;BME280;59991;52.140;5.428;2022-07-10T04:42:49;102703.72;;;14.83;70.47
72116;BME280;59991;52.140;5.428;2022-07-10T04:44:51;102708.94;;;14.89;71.28
72116;BME280;59991;52.140;5.428;2022-07-10T04:46:52;102705.41;;;14.88;70.98
72116;BME280;59991;52.140;5.428;2022-07-10T04:48:55;102701.84;;;14.88;71.56
72116;BME280;59991;52.140;5.428;2022-07-10T04:50:56;102703.00;;;14.86;71.35
72116;BME280;59991;52.140;5.428;2022-07-10T04:53:16;102697.94;;;14.89;71.09
72116;BME280;59991;52.140;5.428;2022-07-10T04:55:17;102705.41;;;14.88;71.84
72116;BME280;59991;52.140;5.428;2022-07-10T04:57:19;102704.69;;;14.91;71.79
72116;BME280;59991;52.140;5.428;2022-07-10T04:59:20;102707.06;;;14.93;71.79
72116;BME280;59991;52.140;5.428;2022-07-10T05:01:22;102705.56;;;14.95;71.79
72116;BME280;59991;52.140;5.428;2022-07-10T05:03:23;102710.75;;;15.00;71.96
72116;BME280;59991;52.140;5.428;2022-07-10T05:05:42;102710.03;;;15.03;71.69
72116;BME280;59991;52.140;5.428;2022-07-10T05:07:44;102709.31;;;15.06;71.84
72116;BME280;59991;52.140;5.428;2022-07-10T05:09:45;102709.38;;;15.10;71.85
72116;BME280;59991;52.140;5.428;2022-07-10T05:11:47;102712.19;;;15.13;72.04
72116;BME280;59991;52.140;5.428;2022-07-10T05:13:49;102709.56;;;15.20;71.76
72116;BME280;59991;52.140;5.428;2022-07-10T05:15:50;102708.91;;;15.27;72.11
72116;BME280;59991;52.140;5.428;2022-07-10T05:18:15;102709.00;;;15.31;71.98
72116;BME280;59991;52.140;5.428;2022-07-10T05:20:17;102709.06;;;15.34;71.57
72116;BME280;59991;52.140;5.428;2022-07-10T05:22:18;102710.28;;;15.37;71.56
72116;BME280;59991;52.140;5.428;2022-07-10T05:24:19;102713.03;;;15.37;71.50
72116;BME280;59991;52.140;5.428;2022-07-10T05:26:21;102712.59;;;15.35;71.57
72116;BME280;59991;52.140;5.428;2022-07-10T05:28:22;102720.13;;;15.38;71.27
72116;BME280;59991;52.140;5.428;2022-07-10T05:30:24;102714.63;;;15.38;71.66
72116;BME280;59991;52.140;5.428;2022-07-10T05:32:25;102712.69;;;15.38;72.09
72116;BME280;59991;52.140;5.428;2022-07-10T05:34:26;102713.75;;;15.34;71.84
72116;BME280;59991;52.140;5.428;2022-07-10T05:36:28;102720.50;;;15.36;71.88
72116;BME280;59991;52.140;5.428;2022-07-10T05:38:29;102722.88;;;15.38;72.24
72116;BME280;59991;52.140;5.428;2022-07-10T05:40:31;102717.78;;;15.40;71.94
72116;BME280;59991;52.140;5.428;2022-07-10T05:42:33;102719.78;;;15.39;72.13
72116;BME280;59991;52.140;5.428;2022-07-10T05:44:35;102716.63;;;15.41;72.36
72116;BME280;59991;52.140;5.428;2022-07-10T05:46:37;102708.78;;;15.39;71.89
72116;BME280;59991;52.140;5.428;2022-07-10T05:48:38;102704.78;;;15.37;71.68
72116;BME280;59991;52.140;5.428;2022-07-10T05:50:40;102706.75;;;15.36;71.91
72116;BME280;59991;52.140;5.428;2022-07-10T05:52:42;102707.97;;;15.39;71.95
72116;BME280;59991;52.140;5.428;2022-07-10T05:54:43;102711.53;;;15.39;72.00
72116;BME280;59991;52.140;5.428;2022-07-10T05:56:45;102711.44;;;15.36;72.29
72116;BME280;59991;52.140;5.428;2022-07-10T05:58:46;102710.66;;;15.35;72.28
72116;BME280;59991;52.140;5.428;2022-07-10T06:00:48;102713.03;;;15.37;72.35
72116;BME280;59991;52.140;5.428;2022-07-10T06:02:51;102715.00;;;15.36;72.07
72116;BME280;59991;52.140;5.428;2022-07-10T06:05:09;102713.88;;;15.41;72.03
72116;BME280;59991;52.140;5.428;2022-07-10T06:07:28;102716.34;;;15.46;72.18
72116;BME280;59991;52.140;5.428;2022-07-10T06:09:30;102718.44;;;15.52;72.33
72116;BME280;59991;52.140;5.428;2022-07-10T06:11:31;102724.50;;;15.62;72.31
72116;BME280;59991;52.140;5.428;2022-07-10T06:13:33;102715.16;;;15.66;72.13
72116;BME280;59991;52.140;5.428;2022-07-10T06:15:34;102716.88;;;15.74;71.92
72116;BME280;59991;52.140;5.428;2022-07-10T06:17:36;102711.03;;;15.76;72.46
72116;BME280;59991;52.140;5.428;2022-07-10T06:19:37;102723.34;;;15.85;71.51
72116;BME280;59991;52.140;5.428;2022-07-10T06:21:39;102722.63;;;15.88;71.40
72116;BME280;59991;52.140;5.428;2022-07-10T06:23:40;102717.47;;;15.87;71.54
72116;BME280;59991;52.140;5.428;2022-07-10T06:25:42;102719.88;;;15.88;71.59
72116;BME280;59991;52.140;5.428;2022-07-10T06:27:43;102724.22;;;15.89;71.44
72116;BME280;59991;52.140;5.428;2022-07-10T06:29:45;102724.94;;;15.86;71.12
72116;BME280;59991;52.140;5.428;2022-07-10T06:31:46;102719.00;;;15.84;71.20
72116;BME280;59991;52.140;5.428;2022-07-10T06:33:48;102729.22;;;15.84;70.88
72116;BME280;59991;52.140;5.428;2022-07-10T06:35:49;102721.31;;;15.82;70.94
72116;BME280;59991;52.140;5.428;2022-07-10T06:37:51;102730.38;;;15.83;71.54
72116;BME280;59991;52.140;5.428;2022-07-10T06:39:53;102726.84;;;15.82;71.72
72116;BME280;59991;52.140;5.428;2022-07-10T06:41:54;102733.84;;;15.80;71.11
72116;BME280;59991;52.140;5.428;2022-07-10T06:43:56;102727.88;;;15.74;71.26
72116;BME280;59991;52.140;5.428;2022-07-10T06:45:57;102728.69;;;15.75;71.59
72116;BME280;59991;52.140;5.428;2022-07-10T06:47:59;102729.03;;;15.73;71.61
72116;BME280;59991;52.140;5.428;2022-07-10T06:50:05;102729.03;;;15.73;71.93
72116;BME280;59991;52.140;5.428;2022-07-10T06:52:07;102733.44;;;15.78;71.72
72116;BME280;59991;52.140;5.428;2022-07-10T06:54:12;102724.81;;;15.79;72.17
72116;BME280;59991;52.140;5.428;2022-07-10T06:56:14;102731.66;;;15.89;72.06
72116;BME280;59991;52.140;5.428;2022-07-10T06:58:35;102721.16;;;15.95;71.63
72116;BME280;59991;52.140;5.428;2022-07-10T07:00:37;102720.47;;;16.01;71.65
72116;BME280;59991;52.140;5.428;2022-07-10T07:02:38;102715.00;;;16.05;71.73
72116;BME280;59991;52.140;5.428;2022-07-10T07:04:40;102726.88;;;16.09;71.67
72116;BME280;59991;52.140;5.428;2022-07-10T07:06:41;102722.09;;;16.06;71.16
72116;BME280;59991;52.140;5.428;2022-07-10T07:08:43;102726.09;;;16.08;70.80
72116;BME280;59991;52.140;5.428;2022-07-10T07:10:44;102724.13;;;16.09;71.52
72116;BME280;59991;52.140;5.428;2022-07-10T07:12:45;102716.19;;;16.04;70.99
72116;BME280;59991;52.140;5.428;2022-07-10T07:14:47;102729.25;;;16.10;70.78
72116;BME280;59991;52.140;5.428;2022-07-10T07:16:48;102723.41;;;16.12;70.89
72116;BME280;59991;52.140;5.428;2022-07-10T07:18:59;102730.50;;;16.13;71.11
72116;BME280;59991;52.140;5.428;2022-07-10T07:21:01;102719.16;;;16.18;70.97
72116;BME280;59991;52.140;5.428;2022-07-10T07:23:22;102730.28;;;16.25;71.11
72116;BME280;59991;52.140;5.428;2022-07-10T07:25:23;102730.69;;;16.27;71.21
72116;BME280;59991;52.140;5.428;2022-07-10T07:27:25;102729.16;;;16.30;70.94
72116;BME280;59991;52.140;5.428;2022-07-10T07:29:27;102726.78;;;16.28;71.15
72116;BME280;59991;52.140;5.428;2022-07-10T07:31:28;102731.63;;;16.35;70.08
72116;BME280;59991;52.140;5.428;2022-07-10T07:33:30;102728.09;;;16.38;70.08
72116;BME280;59991;52.140;5.428;2022-07-10T07:35:31;102716.34;;;16.41;70.14
72116;BME280;59991;52.140;5.428;2022-07-10T07:37:40;102724.78;;;16.51;69.21
72116;BME280;59991;52.140;5.428;2022-07-10T07:39:42;102727.56;;;16.55;69.40
72116;BME280;59991;52.140;5.428;2022-07-10T07:41:44;102729.13;;;16.56;69.09
72116;BME280;59991;52.140;5.428;2022-07-10T07:43:45;102728.78;;;16.57;69.15
72116;BME280;59991;52.140;5.428;2022-07-10T07:45:47;102733.25;;;16.66;69.17
72116;BME280;59991;52.140;5.428;2022-07-10T07:48:07;102733.75;;;16.75;69.40
72116;BME280;59991;52.140;5.428;2022-07-10T07:50:08;102732.25;;;16.81;68.80
72116;BME280;59991;52.140;5.428;2022-07-10T07:52:10;102731.94;;;16.86;68.85
72116;BME280;59991;52.140;5.428;2022-07-10T07:54:12;102737.81;;;16.84;68.35
72116;BME280;59991;52.140;5.428;2022-07-10T07:56:13;102747.69;;;16.85;67.87
72116;BME280;59991;52.140;5.428;2022-07-10T07:58:17;102727.19;;;16.83;68.39
72116;BME280;59991;52.140;5.428;2022-07-10T08:00:18;102739.78;;;16.84;68.35
72116;BME280;59991;52.140;5.428;2022-07-10T08:02:40;102749.66;;;16.85;68.76
72116;BME280;59991;52.140;5.428;2022-07-10T08:04:42;102741.38;;;16.85;68.80
72116;BME280;59991;52.140;5.428;2022-07-10T08:06:43;102733.47;;;16.83;68.36
72116;BME280;59991;52.140;5.428;2022-07-10T08:08:44;102749.22;;;16.83;68.38
72116;BME280;59991;52.140;5.428;2022-07-10T08:11:04;102743.66;;;16.79;68.61
72116;BME280;59991;52.140;5.428;2022-07-10T08:13:05;102736.97;;;16.80;68.66
72116;BME280;59991;52.140;5.428;2022-07-10T08:15:08;102741.06;;;16.90;69.30
72116;BME280;59991;52.140;5.428;2022-07-10T08:17:09;102738.00;;;16.99;69.15
72116;BME280;59991;52.140;5.428;2022-07-10T08:19:11;102732.50;;;16.99;68.83
72116;BME280;59991;52.140;5.428;2022-07-10T08:21:12;102736.47;;;17.01;68.37
72116;BME280;59991;52.140;5.428;2022-07-10T08:23:14;102732.91;;;17.01;68.12
72116;BME280;59991;52.140;5.428;2022-07-10T08:25:15;102734.63;;;17.12;68.37
72116;BME280;59991;52.140;5.428;2022-07-10T08:27:17;102735.91;;;17.22;68.01
72116;BME280;59991;52.140;5.428;2022-07-10T08:29:19;102725.31;;;17.24;67.71
72116;BME280;59991;52.140;5.428;2022-07-10T08:31:20;102719.78;;;17.24;67.33
72116;BME280;59991;52.140;5.428;2022-07-10T08:33:22;102721.34;;;17.21;67.88
72116;BME280;59991;52.140;5.428;2022-07-10T08:35:23;102729.19;;;17.19;67.25
72116;BME280;59991;52.140;5.428;2022-07-10T08:37:25;102730.03;;;17.23;67.71
72116;BME280;59991;52.140;5.428;2022-07-10T08:39:26;102730.91;;;17.31;67.75
72116;BME280;59991;52.140;5.428;2022-07-10T08:41:28;102731.34;;;17.37;66.97
72116;BME280;59991;52.140;5.428;2022-07-10T08:43:32;102718.81;;;17.43;67.10
72116;BME280;59991;52.140;5.428;2022-07-10T08:45:34;102716.53;;;17.52;67.86
72116;BME280;59991;52.140;5.428;2022-07-10T08:47:36;102721.84;;;17.68;66.67
72116;BME280;59991;52.140;5.428;2022-07-10T08:49:46;102724.69;;;17.78;66.07
72116;BME280;59991;52.140;5.428;2022-07-10T08:51:56;102710.59;;;17.90;66.08
72116;BME280;59991;52.140;5.428;2022-07-10T08:54:00;102722.94;;;18.04;65.13
72116;BME280;59991;52.140;5.428;2022-07-10T08:56:02;102726.19;;;18.16;65.19
72116;BME280;59991;52.140;5.428;2022-07-10T08:58:03;102725.47;;;18.26;64.53
72116;BME280;59991;52.140;5.428;2022-07-10T09:00:09;102723.91;;;18.33;64.30
72116;BME280;59991;52.140;5.428;2022-07-10T09:02:10;102721.53;;;18.27;64.11
72116;BME280;59991;52.140;5.428;2022-07-10T09:06:36;102717.25;;;18.37;64.32
72116;BME280;59991;52.140;5.428;2022-07-10T09:08:38;102714.53;;;18.44;64.32
72116;BME280;59991;52.140;5.428;2022-07-10T09:11:18;102719.34;;;18.58;64.89
72116;BME280;59991;52.140;5.428;2022-07-10T09:13:20;102715.06;;;18.68;63.79
72116;BME280;59991;52.140;5.428;2022-07-10T09:15:23;102712.69;;;18.70;63.49
72116;BME280;59991;52.140;5.428;2022-07-10T09:17:24;102711.13;;;18.69;63.10
72116;BME280;59991;52.140;5.428;2022-07-10T09:19:27;102706.38;;;18.66;63.03
72116;BME280;59991;52.140;5.428;2022-07-10T09:21:32;102712.28;;;18.60;63.71
72116;BME280;59991;52.140;5.428;2022-07-10T09:23:34;102713.78;;;18.54;63.61
72116;BME280;59991;52.140;5.428;2022-07-10T09:25:35;102712.97;;;18.50;63.11
72116;BME280;59991;52.140;5.428;2022-07-10T09:27:54;102718.50;;;18.47;64.03
72116;BME280;59991;52.140;5.428;2022-07-10T09:29:56;102710.25;;;18.57;62.76
72116;BME280;59991;52.140;5.428;2022-07-10T09:32:02;102712.72;;;18.66;62.76
72116;BME280;59991;52.140;5.428;2022-07-10T09:34:03;102707.53;;;18.61;62.86
72116;BME280;59991;52.140;5.428;2022-07-10T09:36:09;102707.50;;;18.57;62.74
72116;BME280;59991;52.140;5.428;2022-07-10T09:38:14;102701.22;;;18.60;63.12
72116;BME280;59991;52.140;5.428;2022-07-10T09:40:16;102699.59;;;18.56;63.26
72116;BME280;59991;52.140;5.428;2022-07-10T09:42:28;102698.84;;;18.59;63.81
72116;BME280;59991;52.140;5.428;2022-07-10T09:44:30;102694.13;;;18.67;63.63
72116;BME280;59991;52.140;5.428;2022-07-10T09:46:36;102700.50;;;18.78;63.34
72116;BME280;59991;52.140;5.428;2022-07-10T09:48:38;102685.53;;;18.86;63.28
72116;BME280;59991;52.140;5.428;2022-07-10T09:50:59;102685.56;;;18.93;62.52
72116;BME280;59991;52.140;5.428;2022-07-10T09:53:04;102682.81;;;19.00;62.55
72116;BME280;59991;52.140;5.428;2022-07-10T09:55:06;102680.47;;;19.13;61.97
72116;BME280;59991;52.140;5.428;2022-07-10T09:57:09;102682.88;;;19.21;61.77
72116;BME280;59991;52.140;5.428;2022-07-10T09:59:13;102685.66;;;19.28;61.46
72116;BME280;59991;52.140;5.428;2022-07-10T10:01:16;102684.44;;;19.26;62.12
72116;BME280;59991;52.140;5.428;2022-07-10T10:03:19;102682.47;;;19.26;61.53
72116;BME280;59991;52.140;5.428;2022-07-10T10:06:14;102674.22;;;19.37;61.46
72116;BME280;59991;52.140;5.428;2022-07-10T10:07:48;102667.94;;;19.51;60.81
72116;BME280;59991;52.140;5.428;2022-07-10T10:09:54;102675.84;;;19.59;60.74
72116;BME280;59991;52.140;5.428;2022-07-10T10:12:02;102673.09;;;19.59;61.16
72116;BME280;59991;52.140;5.428;2022-07-10T10:14:07;102675.44;;;19.61;60.80
72116;BME280;59991;52.140;5.428;2022-07-10T10:16:09;102680.59;;;19.59;61.51
72116;BME280;59991;52.140;5.428;2022-07-10T10:18:11;102685.31;;;19.55;61.13
72116;BME280;59991;52.140;5.428;2022-07-10T10:20:14;102678.19;;;19.43;61.16
72116;BME280;59991;52.140;5.428;2022-07-10T10:22:35;102688.03;;;19.37;61.27
72116;BME280;59991;52.140;5.428;2022-07-10T10:24:37;102684.88;;;19.35;61.27
72116;BME280;59991;52.140;5.428;2022-07-10T10:26:41;102689.63;;;19.38;62.34
72116;BME280;59991;52.140;5.428;2022-07-10T10:28:43;102687.25;;;19.44;61.32
72116;BME280;59991;52.140;5.428;2022-07-10T10:30:45;102695.94;;;19.39;61.17
72116;BME280;59991;52.140;5.428;2022-07-10T10:35:51;102689.59;;;19.20;61.25
72116;BME280;59991;52.140;5.428;2022-07-10T10:37:54;102686.81;;;19.17;62.06
72116;BME280;59991;52.140;5.428;2022-07-10T10:39:55;102686.84;;;19.20;61.97
72116;BME280;59991;52.140;5.428;2022-07-10T10:41:59;102681.69;;;19.22;62.09
72116;BME280;59991;52.140;5.428;2022-07-10T10:46:23;102667.50;;;19.49;61.62
72116;BME280;59991;52.140;5.428;2022-07-10T10:49:04;102677.81;;;19.70;61.47
72116;BME280;59991;52.140;5.428;2022-07-10T10:51:07;102678.63;;;19.77;60.90
72116;BME280;59991;52.140;5.428;2022-07-10T10:53:16;102684.53;;;19.76;61.67
72116;BME280;59991;52.140;5.428;2022-07-10T10:55:38;102680.19;;;19.67;60.70
72116;BME280;59991;52.140;5.428;2022-07-10T10:57:41;102685.34;;;19.58;61.34